sensor_id;sensor_type;location;lat;lon;timestamp;P1;durP1;ratioP1;P2;durP2;ratioP2
27161;SDS011;54464;50.558;9.704;2024-03-23T00:53:43;19.23;;;15.07;;
27161;SDS011;54464;50.558;9.704;2024-03-23T00:56:09;19.37;;;14.77;;
27161;SDS011;54464;50.558;9.704;2024-03-23T00:58:35;22.77;;;14.93;;
27161;SDS011;54464;50.558;9.704;2024-03-23T01:01:00;23.17;;;15.23;;
27161;SDS011;54464;50.558;9.704;2024-03-23T01:03:28;23.53;;;15.57;;
27161;SDS011;54464;50.558;9.704;2024-03-23T01:05:54;19.67;;;14.33;;
27161;SDS011;54464;50.558;9.704;2024-03-23T01:08:23;18.60;;;13.80;;
27161;SDS011;54464;50.558;9.704;2024-03-23T01:10:55;20.70;;;15.37;;
27161;SDS011;54464;50.558;9.704;2024-03-23T01:13:22;19.90;;;15.03;;
27161;SDS011;54464;50.558;9.704;2024-03-23T01:15:48;19.00;;;14.50;;
27161;SDS011;54464;50.558;9.704;2024-03-23T01:18:14;20.27;;;15.10;;
27161;SDS011;54464;50.558;9.704;2024-03-23T01:20:39;19.13;;;13.67;;
27161;SDS011;54464;50.558;9.704;2024-03-23T01:23:05;20.37;;;14.90;;
27161;SDS011;54464;50.558;9.704;2024-03-23T01:25:30;18.23;;;14.83;;
27161;SDS011;54464;50.558;9.704;2024-03-23T01:27:56;18.20;;;13.97;;
27161;SDS011;54464;50.558;9.704;2024-03-23T01:30:22;19.03;;;14.37;;
27161;SDS011;54464;50.558;9.704;2024-03-23T01:32:47;22.20;;;14.83;;
27161;SDS011;54464;50.558;9.704;2024-03-23T01:35:13;17.80;;;13.53;;
27161;SDS011;54464;50.558;9.704;2024-03-23T01:37:38;19.70;;;13.90;;
27161;SDS011;54464;50.558;9.704;2024-03-23T01:40:04;19.87;;;13.97;;
27161;SDS011;54464;50.558;9.704;2024-03-23T01:42:30;21.50;;;14.07;;
27161;SDS011;54464;50.558;9.704;2024-03-23T01:44:55;17.33;;;13.57;;
27161;SDS011;54464;50.558;9.704;2024-03-23T01:47:21;20.53;;;14.13;;
27161;SDS011;54464;50.558;9.704;2024-03-23T01:49:46;18.60;;;14.40;;
27161;SDS011;54464;50.558;9.704;2024-03-23T01:52:12;18.57;;;13.93;;
27161;SDS011;54464;50.558;9.704;2024-03-23T01:54:38;18.53;;;13.70;;
27161;SDS011;54464;50.558;9.704;2024-03-23T01:57:04;18.40;;;14.10;;
27161;SDS011;54464;50.558;9.704;2024-03-23T01:59:30;20.53;;;15.07;;
27161;SDS011;54464;50.558;9.704;2024-03-23T02:01:55;19.80;;;14.70;;
27161;SDS011;54464;50.558;9.704;2024-03-23T02:04:21;19.10;;;15.80;;
27161;SDS011;54464;50.558;9.704;2024-03-23T02:06:46;22.50;;;15.53;;
27161;SDS011;54464;50.558;9.704;2024-03-23T02:09:13;19.27;;;14.93;;
27161;SDS011;54464;50.558;9.704;2024-03-23T02:11:39;20.97;;;14.70;;
27161;SDS011;54464;50.558;9.704;2024-03-23T02:14:04;22.13;;;15.73;;
27161;SDS011;54464;50.558;9.704;2024-03-23T02:16:30;23.13;;;16.70;;
27161;SDS011;54464;50.558;9.704;2024-03-23T02:18:55;21.53;;;15.43;;
27161;SDS011;54464;50.558;9.704;2024-03-23T02:21:21;24.83;;;16.63;;
27161;SDS011;54464;50.558;9.704;2024-03-23T02:23:46;21.73;;;15.17;;
27161;SDS011;54464;50.558;9.704;2024-03-23T02:26:12;20.23;;;14.83;;
27161;SDS011;54464;50.558;9.704;2024-03-23T02:28:39;20.40;;;15.00;;
27161;SDS011;54464;50.558;9.704;2024-03-23T02:31:04;19.57;;;15.07;;
27161;SDS011;54464;50.558;9.704;2024-03-23T02:33:30;23.13;;;16.43;;
27161;SDS011;54464;50.558;9.704;2024-03-23T02:35:57;21.07;;;15.47;;
27161;SDS011;54464;50.558;9.704;2024-03-23T02:38:22;20.40;;;15.17;;
27161;SDS011;54464;50.558;9.704;2024-03-23T02:40:48;21.90;;;16.10;;
27161;SDS011;54464;50.558;9.704;2024-03-23T02:43:13;19.13;;;15.37;;
27161;SDS011;54464;50.558;9.704;2024-03-23T02:45:39;20.80;;;15.50;;
27161;SDS011;54464;50.558;9.704;2024-03-23T02:48:05;26.87;;;16.77;;
27161;SDS011;54464;50.558;9.704;2024-03-23T02:50:31;21.77;;;17.10;;
27161;SDS011;54464;50.558;9.704;2024-03-23T02:52:56;22.97;;;17.30;;
27161;SDS011;54464;50.558;9.704;2024-03-23T02:55:22;23.93;;;17.00;;
27161;SDS011;54464;50.558;9.704;2024-03-23T02:57:47;25.53;;;17.33;;
27161;SDS011;54464;50.558;9.704;2024-03-23T03:00:13;22.17;;;16.70;;
27161;SDS011;54464;50.558;9.704;2024-03-23T03:02:38;22.50;;;17.00;;
27161;SDS011;54464;50.558;9.704;2024-03-23T03:05:04;26.90;;;19.63;;
27161;SDS011;54464;50.558;9.704;2024-03-23T03:07:31;27.10;;;19.23;;
27161;SDS011;54464;50.558;9.704;2024-03-23T03:09:57;28.37;;;19.07;;
27161;SDS011;54464;50.558;9.704;2024-03-23T03:12:22;24.87;;;18.70;;
27161;SDS011;54464;50.558;9.704;2024-03-23T03:14:48;28.13;;;19.50;;
27161;SDS011;54464;50.558;9.704;2024-03-23T03:17:14;28.57;;;19.67;;
27161;SDS011;54464;50.558;9.704;2024-03-23T03:19:40;26.00;;;19.13;;
27161;SDS011;54464;50.558;9.704;2024-03-23T03:22:05;29.90;;;19.90;;
27161;SDS011;54464;50.558;9.704;2024-03-23T03:24:31;27.53;;;18.47;;
27161;SDS011;54464;50.558;9.704;2024-03-23T03:26:56;25.57;;;17.40;;
27161;SDS011;54464;50.558;9.704;2024-03-23T03:29:23;24.83;;;17.70;;
27161;SDS011;54464;50.558;9.704;2024-03-23T03:31:48;27.27;;;17.13;;
27161;SDS011;54464;50.558;9.704;2024-03-23T03:34:15;24.30;;;17.33;;
27161;SDS011;54464;50.558;9.704;2024-03-23T03:36:40;23.90;;;17.63;;
27161;SDS011;54464;50.558;9.704;2024-03-23T03:39:06;19.43;;;15.53;;
27161;SDS011;54464;50.558;9.704;2024-03-23T03:41:32;22.40;;;16.77;;
27161;SDS011;54464;50.558;9.704;2024-03-23T03:43:57;23.77;;;16.47;;
27161;SDS011;54464;50.558;9.704;2024-03-23T03:46:27;19.97;;;16.30;;
27161;SDS011;54464;50.558;9.704;2024-03-23T03:48:54;25.10;;;16.17;;
27161;SDS011;54464;50.558;9.704;2024-03-23T03:51:19;22.10;;;16.73;;
27161;SDS011;54464;50.558;9.704;2024-03-23T03:53:46;24.17;;;17.90;;
27161;SDS011;54464;50.558;9.704;2024-03-23T03:56:11;25.00;;;17.73;;
27161;SDS011;54464;50.558;9.704;2024-03-23T03:58:37;23.07;;;17.57;;
27161;SDS011;54464;50.558;9.704;2024-03-23T04:01:02;27.30;;;18.03;;
27161;SDS011;54464;50.558;9.704;2024-03-23T04:03:28;23.77;;;17.30;;
27161;SDS011;54464;50.558;9.704;2024-03-23T04:05:53;24.63;;;17.30;;
27161;SDS011;54464;50.558;9.704;2024-03-23T04:08:19;26.13;;;18.43;;
27161;SDS011;54464;50.558;9.704;2024-03-23T04:10:46;24.77;;;18.57;;
27161;SDS011;54464;50.558;9.704;2024-03-23T04:13:12;25.17;;;18.50;;
27161;SDS011;54464;50.558;9.704;2024-03-23T04:15:38;26.47;;;17.97;;
27161;SDS011;54464;50.558;9.704;2024-03-23T04:18:03;24.00;;;17.63;;
27161;SDS011;54464;50.558;9.704;2024-03-23T04:20:29;23.97;;;18.13;;
27161;SDS011;54464;50.558;9.704;2024-03-23T04:22:55;24.93;;;17.60;;
27161;SDS011;54464;50.558;9.704;2024-03-23T04:25:20;23.90;;;17.43;;
27161;SDS011;54464;50.558;9.704;2024-03-23T04:27:46;24.00;;;16.57;;
27161;SDS011;54464;50.558;9.704;2024-03-23T04:30:11;21.77;;;16.73;;
27161;SDS011;54464;50.558;9.704;2024-03-23T04:32:37;21.60;;;16.17;;
27161;SDS011;54464;50.558;9.704;2024-03-23T04:35:07;22.90;;;16.90;;
27161;SDS011;54464;50.558;9.704;2024-03-23T04:37:36;22.07;;;17.23;;
27161;SDS011;54464;50.558;9.704;2024-03-23T04:40:02;22.40;;;17.10;;
27161;SDS011;54464;50.558;9.704;2024-03-23T04:42:32;22.27;;;16.33;;
27161;SDS011;54464;50.558;9.704;2024-03-23T04:44:58;23.10;;;16.53;;
27161;SDS011;54464;50.558;9.704;2024-03-23T04:47:23;23.17;;;17.00;;
27161;SDS011;54464;50.558;9.704;2024-03-23T04:49:49;26.73;;;17.57;;
27161;SDS011;54464;50.558;9.704;2024-03-23T04:52:16;26.10;;;17.60;;
27161;SDS011;54464;50.558;9.704;2024-03-23T04:54:42;26.73;;;17.80;;
27161;SDS011;54464;50.558;9.704;2024-03-23T04:57:08;23.60;;;17.87;;
27161;SDS011;54464;50.558;9.704;2024-03-23T04:59:33;25.30;;;17.67;;
27161;SDS011;54464;50.558;9.704;2024-03-23T05:01:59;25.40;;;18.10;;
27161;SDS011;54464;50.558;9.704;2024-03-23T05:04:25;26.60;;;18.30;;
27161;SDS011;54464;50.558;9.704;2024-03-23T05:06:53;28.47;;;18.80;;
27161;SDS011;54464;50.558;9.704;2024-03-23T05:09:19;26.23;;;18.27;;
27161;SDS011;54464;50.558;9.704;2024-03-23T05:11:45;25.57;;;19.87;;
27161;SDS011;54464;50.558;9.704;2024-03-23T05:14:12;27.00;;;18.50;;
27161;SDS011;54464;50.558;9.704;2024-03-23T05:16:38;28.93;;;19.33;;
27161;SDS011;54464;50.558;9.704;2024-03-23T05:19:04;26.50;;;18.90;;
27161;SDS011;54464;50.558;9.704;2024-03-23T05:21:30;24.13;;;17.07;;
27161;SDS011;54464;50.558;9.704;2024-03-23T05:23:55;37.87;;;20.33;;
27161;SDS011;54464;50.558;9.704;2024-03-23T05:26:21;29.10;;;19.43;;
27161;SDS011;54464;50.558;9.704;2024-03-23T05:28:48;29.43;;;19.07;;
27161;SDS011;54464;50.558;9.704;2024-03-23T05:31:22;23.23;;;15.27;;
27161;SDS011;54464;50.558;9.704;2024-03-23T05:33:51;22.57;;;16.43;;
27161;SDS011;54464;50.558;9.704;2024-03-23T05:36:16;22.63;;;14.10;;
27161;SDS011;54464;50.558;9.704;2024-03-23T05:38:42;20.67;;;14.10;;
27161;SDS011;54464;50.558;9.704;2024-03-23T05:41:08;20.73;;;12.60;;
27161;SDS011;54464;50.558;9.704;2024-03-23T05:43:34;14.03;;;10.23;;
27161;SDS011;54464;50.558;9.704;2024-03-23T05:46:00;8.37;;;6.43;;
27161;SDS011;54464;50.558;9.704;2024-03-23T05:48:34;7.33;;;5.30;;
27161;SDS011;54464;50.558;9.704;2024-03-23T05:51:00;6.13;;;4.27;;
27161;SDS011;54464;50.558;9.704;2024-03-23T05:53:26;5.27;;;3.27;;
27161;SDS011;54464;50.558;9.704;2024-03-23T05:56:00;5.20;;;3.00;;
27161;SDS011;54464;50.558;9.704;2024-03-23T05:58:30;4.00;;;2.60;;
27161;SDS011;54464;50.558;9.704;2024-03-23T06:00:59;3.87;;;2.23;;
27161;SDS011;54464;50.558;9.704;2024-03-23T06:03:26;2.47;;;1.90;;
27161;SDS011;54464;50.558;9.704;2024-03-23T06:05:52;3.87;;;2.10;;
27161;SDS011;54464;50.558;9.704;2024-03-23T06:08:18;3.63;;;2.07;;
27161;SDS011;54464;50.558;9.704;2024-03-23T06:10:44;2.03;;;1.70;;
27161;SDS011;54464;50.558;9.704;2024-03-23T06:13:10;3.87;;;2.13;;
27161;SDS011;54464;50.558;9.704;2024-03-23T06:15:36;1.40;;;1.30;;
27161;SDS011;54464;50.558;9.704;2024-03-23T06:18:02;1.83;;;1.50;;
27161;SDS011;54464;50.558;9.704;2024-03-23T06:20:29;2.00;;;1.43;;
27161;SDS011;54464;50.558;9.704;2024-03-23T06:22:54;1.33;;;1.23;;
27161;SDS011;54464;50.558;9.704;2024-03-23T06:25:20;2.13;;;1.23;;
27161;SDS011;54464;50.558;9.704;2024-03-23T06:27:45;1.67;;;1.00;;
27161;SDS011;54464;50.558;9.704;2024-03-23T06:30:11;1.00;;;0.90;;
27161;SDS011;54464;50.558;9.704;2024-03-23T06:32:37;1.27;;;0.97;;
27161;SDS011;54464;50.558;9.704;2024-03-23T06:35:03;1.10;;;1.00;;
27161;SDS011;54464;50.558;9.704;2024-03-23T06:37:33;2.60;;;1.10;;
27161;SDS011;54464;50.558;9.704;2024-03-23T06:39:59;2.00;;;1.00;;
27161;SDS011;54464;50.558;9.704;2024-03-23T06:42:24;0.70;;;0.70;;
27161;SDS011;54464;50.558;9.704;2024-03-23T06:44:50;1.30;;;0.90;;
27161;SDS011;54464;50.558;9.704;2024-03-23T06:47:16;0.63;;;0.63;;
27161;SDS011;54464;50.558;9.704;2024-03-23T06:49:41;0.50;;;0.50;;
27161;SDS011;54464;50.558;9.704;2024-03-23T06:52:07;0.50;;;0.50;;
27161;SDS011;54464;50.558;9.704;2024-03-23T06:54:32;0.47;;;0.47;;
27161;SDS011;54464;50.558;9.704;2024-03-23T06:57:01;0.50;;;0.50;;
27161;SDS011;54464;50.558;9.704;2024-03-23T06:59:26;0.60;;;0.60;;
27161;SDS011;54464;50.558;9.704;2024-03-23T07:01:52;0.60;;;0.60;;
27161;SDS011;54464;50.558;9.704;2024-03-23T07:04:18;0.53;;;0.50;;
27161;SDS011;54464;50.558;9.704;2024-03-23T07:06:43;0.40;;;0.40;;
27161;SDS011;54464;50.558;9.704;2024-03-23T07:09:10;0.40;;;0.40;;
27161;SDS011;54464;50.558;9.704;2024-03-23T07:11:36;0.40;;;0.40;;
27161;SDS011;54464;50.558;9.704;2024-03-23T07:14:02;0.40;;;0.40;;
27161;SDS011;54464;50.558;9.704;2024-03-23T07:16:30;0.30;;;0.30;;
27161;SDS011;54464;50.558;9.704;2024-03-23T07:18:56;0.40;;;0.40;;
27161;SDS011;54464;50.558;9.704;2024-03-23T07:21:22;0.40;;;0.30;;
27161;SDS011;54464;50.558;9.704;2024-03-23T07:23:47;0.47;;;0.47;;
27161;SDS011;54464;50.558;9.704;2024-03-23T07:26:13;0.70;;;0.53;;
27161;SDS011;54464;50.558;9.704;2024-03-23T07:28:38;0.93;;;0.50;;
27161;SDS011;54464;50.558;9.704;2024-03-23T07:31:12;0.50;;;0.40;;
27161;SDS011;54464;50.558;9.704;2024-03-23T07:33:42;1.13;;;0.60;;
27161;SDS011;54464;50.558;9.704;2024-03-23T07:36:10;0.50;;;0.50;;
27161;SDS011;54464;50.558;9.704;2024-03-23T07:38:35;1.13;;;0.53;;
27161;SDS011;54464;50.558;9.704;2024-03-23T07:41:11;0.57;;;0.57;;
27161;SDS011;54464;50.558;9.704;2024-03-23T07:43:44;4.63;;;1.87;;
27161;SDS011;54464;50.558;9.704;2024-03-23T07:46:11;1.17;;;0.90;;
27161;SDS011;54464;50.558;9.704;2024-03-23T07:48:37;0.90;;;0.90;;
27161;SDS011;54464;50.558;9.704;2024-03-23T07:51:04;1.33;;;1.20;;
27161;SDS011;54464;50.558;9.704;2024-03-23T07:53:33;0.90;;;0.90;;
27161;SDS011;54464;50.558;9.704;2024-03-23T07:56:03;0.80;;;0.70;;
27161;SDS011;54464;50.558;9.704;2024-03-23T07:58:33;0.90;;;0.77;;
27161;SDS011;54464;50.558;9.704;2024-03-23T08:01:06;1.13;;;0.93;;
27161;SDS011;54464;50.558;9.704;2024-03-23T08:03:33;1.10;;;0.90;;
27161;SDS011;54464;50.558;9.704;2024-03-23T08:06:33;0.93;;;0.60;;
27161;SDS011;54464;50.558;9.704;2024-03-23T08:08:52;1.47;;;0.70;;
27161;SDS011;54464;50.558;9.704;2024-03-23T08:11:33;0.87;;;0.80;;
27161;SDS011;54464;50.558;9.704;2024-03-23T08:13:59;2.10;;;1.10;;
27161;SDS011;54464;50.558;9.704;2024-03-23T08:16:26;1.10;;;1.00;;
27161;SDS011;54464;50.558;9.704;2024-03-23T08:18:52;1.50;;;1.00;;
27161;SDS011;54464;50.558;9.704;2024-03-23T08:21:17;2.33;;;1.03;;
27161;SDS011;54464;50.558;9.704;2024-03-23T08:23:44;3.43;;;2.10;;
27161;SDS011;54464;50.558;9.704;2024-03-23T08:26:10;1.63;;;1.20;;
27161;SDS011;54464;50.558;9.704;2024-03-23T08:28:38;2.63;;;1.10;;
27161;SDS011;54464;50.558;9.704;2024-03-23T08:31:06;2.50;;;1.10;;
27161;SDS011;54464;50.558;9.704;2024-03-23T08:33:33;6.07;;;3.20;;
27161;SDS011;54464;50.558;9.704;2024-03-23T08:35:59;5.63;;;2.93;;
27161;SDS011;54464;50.558;9.704;2024-03-23T08:38:26;3.83;;;2.70;;
27161;SDS011;54464;50.558;9.704;2024-03-23T08:40:56;2.37;;;1.17;;
27161;SDS011;54464;50.558;9.704;2024-03-23T08:43:22;2.43;;;1.07;;
27161;SDS011;54464;50.558;9.704;2024-03-23T08:45:48;3.00;;;1.40;;
27161;SDS011;54464;50.558;9.704;2024-03-23T08:48:14;2.37;;;1.10;;
27161;SDS011;54464;50.558;9.704;2024-03-23T08:50:39;2.33;;;1.43;;
27161;SDS011;54464;50.558;9.704;2024-03-23T08:53:05;2.50;;;1.07;;
27161;SDS011;54464;50.558;9.704;2024-03-23T08:55:30;1.77;;;1.40;;
27161;SDS011;54464;50.558;9.704;2024-03-23T08:57:56;2.97;;;1.30;;
27161;SDS011;54464;50.558;9.704;2024-03-23T09:00:21;2.10;;;1.30;;
27161;SDS011;54464;50.558;9.704;2024-03-23T09:02:47;4.73;;;2.33;;
27161;SDS011;54464;50.558;9.704;2024-03-23T09:05:13;4.83;;;2.80;;
27161;SDS011;54464;50.558;9.704;2024-03-23T09:07:39;2.47;;;1.20;;
27161;SDS011;54464;50.558;9.704;2024-03-23T09:10:04;2.97;;;1.20;;
27161;SDS011;54464;50.558;9.704;2024-03-23T09:12:31;4.53;;;1.20;;
27161;SDS011;54464;50.558;9.704;2024-03-23T09:14:57;1.80;;;1.13;;
27161;SDS011;54464;50.558;9.704;2024-03-23T09:17:22;1.60;;;1.00;;
27161;SDS011;54464;50.558;9.704;2024-03-23T09:19:48;1.70;;;1.00;;
27161;SDS011;54464;50.558;9.704;2024-03-23T09:22:13;2.77;;;1.30;;
27161;SDS011;54464;50.558;9.704;2024-03-23T09:24:39;2.20;;;0.90;;
27161;SDS011;54464;50.558;9.704;2024-03-23T09:27:05;1.80;;;1.43;;
27161;SDS011;54464;50.558;9.704;2024-03-23T09:29:31;1.63;;;1.00;;
27161;SDS011;54464;50.558;9.704;2024-03-23T09:31:56;1.40;;;0.90;;
27161;SDS011;54464;50.558;9.704;2024-03-23T09:34:22;1.33;;;1.03;;
27161;SDS011;54464;50.558;9.704;2024-03-23T09:36:50;1.93;;;1.10;;
27161;SDS011;54464;50.558;9.704;2024-03-23T09:39:17;2.50;;;1.20;;
27161;SDS011;54464;50.558;9.704;2024-03-23T09:41:43;2.13;;;1.17;;
27161;SDS011;54464;50.558;9.704;2024-03-23T09:44:08;3.70;;;1.70;;
27161;SDS011;54464;50.558;9.704;2024-03-23T09:46:35;3.50;;;2.07;;
27161;SDS011;54464;50.558;9.704;2024-03-23T09:49:01;5.23;;;2.10;;
27161;SDS011;54464;50.558;9.704;2024-03-23T09:51:29;3.10;;;2.10;;
27161;SDS011;54464;50.558;9.704;2024-03-23T09:53:55;5.73;;;2.43;;
27161;SDS011;54464;50.558;9.704;2024-03-23T09:56:22;4.67;;;2.83;;
27161;SDS011;54464;50.558;9.704;2024-03-23T09:58:48;7.80;;;3.10;;
27161;SDS011;54464;50.558;9.704;2024-03-23T10:01:14;5.40;;;3.03;;
27161;SDS011;54464;50.558;9.704;2024-03-23T10:03:46;6.53;;;3.23;;
27161;SDS011;54464;50.558;9.704;2024-03-23T10:06:12;12.37;;;4.77;;
27161;SDS011;54464;50.558;9.704;2024-03-23T10:08:37;6.43;;;3.67;;
27161;SDS011;54464;50.558;9.704;2024-03-23T10:11:16;8.10;;;3.57;;
27161;SDS011;54464;50.558;9.704;2024-03-23T10:13:42;6.20;;;3.70;;
27161;SDS011;54464;50.558;9.704;2024-03-23T10:16:09;8.47;;;3.83;;
27161;SDS011;54464;50.558;9.704;2024-03-23T10:18:41;7.37;;;3.53;;
27161;SDS011;54464;50.558;9.704;2024-03-23T10:23:34;10.13;;;4.20;;
27161;SDS011;54464;50.558;9.704;2024-03-23T10:31:17;9.37;;;4.70;;
27161;SDS011;54464;50.558;9.704;2024-03-23T10:33:44;7.97;;;4.07;;
27161;SDS011;54464;50.558;9.704;2024-03-23T10:36:11;9.93;;;4.73;;
27161;SDS011;54464;50.558;9.704;2024-03-23T10:38:37;7.27;;;4.77;;
27161;SDS011;54464;50.558;9.704;2024-03-23T10:41:08;8.67;;;4.53;;
27161;SDS011;54464;50.558;9.704;2024-03-23T10:43:35;7.33;;;4.27;;
27161;SDS011;54464;50.558;9.704;2024-03-23T10:46:02;10.33;;;4.77;;
27161;SDS011;54464;50.558;9.704;2024-03-23T10:48:28;7.67;;;4.03;;
27161;SDS011;54464;50.558;9.704;2024-03-23T10:50:54;8.03;;;4.50;;
27161;SDS011;54464;50.558;9.704;2024-03-23T10:53:21;7.47;;;4.27;;
27161;SDS011;54464;50.558;9.704;2024-03-23T10:55:50;7.10;;;3.30;;
27161;SDS011;54464;50.558;9.704;2024-03-23T10:58:17;7.33;;;3.60;;
27161;SDS011;54464;50.558;9.704;2024-03-23T11:00:46;6.20;;;3.50;;
27161;SDS011;54464;50.558;9.704;2024-03-23T11:03:31;7.90;;;3.43;;
27161;SDS011;54464;50.558;9.704;2024-03-23T11:05:57;8.57;;;3.10;;
27161;SDS011;54464;50.558;9.704;2024-03-23T11:11:17;5.90;;;2.33;;
27161;SDS011;54464;50.558;9.704;2024-03-23T11:13:44;5.67;;;2.20;;
27161;SDS011;54464;50.558;9.704;2024-03-23T11:16:16;4.50;;;2.30;;
27161;SDS011;54464;50.558;9.704;2024-03-23T11:18:46;6.03;;;2.37;;
27161;SDS011;54464;50.558;9.704;2024-03-23T11:21:13;2.83;;;1.77;;
27161;SDS011;54464;50.558;9.704;2024-03-23T11:24:15;2.47;;;1.80;;
27161;SDS011;54464;50.558;9.704;2024-03-23T11:26:41;3.10;;;1.97;;
27161;SDS011;54464;50.558;9.704;2024-03-23T11:29:10;2.97;;;1.77;;
27161;SDS011;54464;50.558;9.704;2024-03-23T11:31:37;5.20;;;2.00;;
27161;SDS011;54464;50.558;9.704;2024-03-23T11:34:06;5.53;;;2.07;;
27161;SDS011;54464;50.558;9.704;2024-03-23T11:36:32;4.30;;;1.73;;
27161;SDS011;54464;50.558;9.704;2024-03-23T11:38:57;4.60;;;1.87;;
27161;SDS011;54464;50.558;9.704;2024-03-23T11:41:23;4.23;;;2.10;;
27161;SDS011;54464;50.558;9.704;2024-03-23T11:43:49;3.70;;;1.57;;
27161;SDS011;54464;50.558;9.704;2024-03-23T11:46:24;3.77;;;1.73;;
27161;SDS011;54464;50.558;9.704;2024-03-23T11:48:50;4.93;;;1.63;;
27161;SDS011;54464;50.558;9.704;2024-03-23T11:51:18;3.53;;;1.70;;
27161;SDS011;54464;50.558;9.704;2024-03-23T11:53:45;3.10;;;1.40;;
27161;SDS011;54464;50.558;9.704;2024-03-23T11:56:10;3.77;;;2.00;;
27161;SDS011;54464;50.558;9.704;2024-03-23T11:58:36;4.27;;;1.77;;
27161;SDS011;54464;50.558;9.704;2024-03-23T12:01:02;3.33;;;1.63;;
27161;SDS011;54464;50.558;9.704;2024-03-23T12:03:29;6.90;;;2.67;;
27161;SDS011;54464;50.558;9.704;2024-03-23T12:05:56;6.33;;;2.53;;
27161;SDS011;54464;50.558;9.704;2024-03-23T12:08:23;4.33;;;1.80;;
27161;SDS011;54464;50.558;9.704;2024-03-23T12:10:53;3.07;;;2.00;;
27161;SDS011;54464;50.558;9.704;2024-03-23T12:13:39;1.97;;;1.33;;
27161;SDS011;54464;50.558;9.704;2024-03-23T12:18:46;4.17;;;2.20;;
27161;SDS011;54464;50.558;9.704;2024-03-23T12:21:12;3.30;;;1.60;;
27161;SDS011;54464;50.558;9.704;2024-03-23T12:23:41;3.13;;;1.57;;
27161;SDS011;54464;50.558;9.704;2024-03-23T12:26:07;4.33;;;1.50;;
27161;SDS011;54464;50.558;9.704;2024-03-23T12:28:33;1.57;;;1.30;;
27161;SDS011;54464;50.558;9.704;2024-03-23T12:30:59;2.03;;;1.10;;
27161;SDS011;54464;50.558;9.704;2024-03-23T12:33:25;3.93;;;1.70;;
27161;SDS011;54464;50.558;9.704;2024-03-23T12:35:50;2.60;;;1.70;;
27161;SDS011;54464;50.558;9.704;2024-03-23T12:38:16;2.53;;;1.17;;
27161;SDS011;54464;50.558;9.704;2024-03-23T12:40:49;3.03;;;1.40;;
27161;SDS011;54464;50.558;9.704;2024-03-23T12:43:15;3.97;;;1.40;;
27161;SDS011;54464;50.558;9.704;2024-03-23T12:45:45;6.57;;;1.47;;
27161;SDS011;54464;50.558;9.704;2024-03-23T12:48:12;4.27;;;1.50;;
27161;SDS011;54464;50.558;9.704;2024-03-23T12:50:37;5.07;;;1.80;;
27161;SDS011;54464;50.558;9.704;2024-03-23T12:53:03;6.53;;;2.40;;
27161;SDS011;54464;50.558;9.704;2024-03-23T12:55:29;3.03;;;1.27;;
27161;SDS011;54464;50.558;9.704;2024-03-23T12:57:54;3.07;;;1.40;;
27161;SDS011;54464;50.558;9.704;2024-03-23T13:00:20;5.87;;;1.43;;
27161;SDS011;54464;50.558;9.704;2024-03-23T13:02:45;4.93;;;1.33;;
27161;SDS011;54464;50.558;9.704;2024-03-23T13:05:11;2.27;;;1.30;;
27161;SDS011;54464;50.558;9.704;2024-03-23T13:07:36;1.80;;;1.03;;
27161;SDS011;54464;50.558;9.704;2024-03-23T13:10:03;3.83;;;2.33;;
27161;SDS011;54464;50.558;9.704;2024-03-23T13:12:31;5.03;;;2.23;;
27161;SDS011;54464;50.558;9.704;2024-03-23T13:14:57;4.23;;;1.77;;
27161;SDS011;54464;50.558;9.704;2024-03-23T13:17:24;1.83;;;0.80;;
27161;SDS011;54464;50.558;9.704;2024-03-23T13:19:49;2.53;;;1.30;;
27161;SDS011;54464;50.558;9.704;2024-03-23T13:22:15;2.23;;;1.20;;
27161;SDS011;54464;50.558;9.704;2024-03-23T13:24:41;2.30;;;1.00;;
27161;SDS011;54464;50.558;9.704;2024-03-23T13:27:07;3.40;;;1.17;;
27161;SDS011;54464;50.558;9.704;2024-03-23T13:29:33;3.60;;;1.43;;
27161;SDS011;54464;50.558;9.704;2024-03-23T13:32:02;3.40;;;1.23;;
27161;SDS011;54464;50.558;9.704;2024-03-23T13:34:28;2.63;;;1.17;;
27161;SDS011;54464;50.558;9.704;2024-03-23T13:36:54;6.97;;;4.03;;
27161;SDS011;54464;50.558;9.704;2024-03-23T13:39:23;4.03;;;1.53;;
27161;SDS011;54464;50.558;9.704;2024-03-23T13:41:49;2.50;;;1.10;;
27161;SDS011;54464;50.558;9.704;2024-03-23T13:44:14;3.30;;;0.90;;
27161;SDS011;54464;50.558;9.704;2024-03-23T13:46:41;5.27;;;1.40;;
27161;SDS011;54464;50.558;9.704;2024-03-23T13:49:18;2.27;;;0.90;;
27161;SDS011;54464;50.558;9.704;2024-03-23T13:51:56;4.67;;;1.23;;
27161;SDS011;54464;50.558;9.704;2024-03-23T13:54:23;3.50;;;1.53;;
27161;SDS011;54464;50.558;9.704;2024-03-23T13:56:49;2.67;;;1.67;;
27161;SDS011;54464;50.558;9.704;2024-03-23T13:59:15;5.77;;;2.00;;
27161;SDS011;54464;50.558;9.704;2024-03-23T14:01:42;4.00;;;1.40;;
27161;SDS011;54464;50.558;9.704;2024-03-23T14:04:08;5.10;;;1.77;;
27161;SDS011;54464;50.558;9.704;2024-03-23T14:06:34;3.00;;;1.83;;
27161;SDS011;54464;50.558;9.704;2024-03-23T14:08:59;2.27;;;1.83;;
27161;SDS011;54464;50.558;9.704;2024-03-23T14:11:25;4.63;;;1.50;;
27161;SDS011;54464;50.558;9.704;2024-03-23T14:13:51;3.80;;;1.67;;
27161;SDS011;54464;50.558;9.704;2024-03-23T14:16:18;4.80;;;1.53;;
27161;SDS011;54464;50.558;9.704;2024-03-23T14:18:45;5.73;;;1.90;;
27161;SDS011;54464;50.558;9.704;2024-03-23T14:21:11;3.20;;;1.67;;
27161;SDS011;54464;50.558;9.704;2024-03-23T14:23:37;3.23;;;1.37;;
27161;SDS011;54464;50.558;9.704;2024-03-23T14:26:03;5.43;;;2.00;;
27161;SDS011;54464;50.558;9.704;2024-03-23T14:28:28;5.13;;;1.90;;
27161;SDS011;54464;50.558;9.704;2024-03-23T14:30:55;5.30;;;2.87;;
27161;SDS011;54464;50.558;9.704;2024-03-23T14:33:21;3.20;;;1.60;;
27161;SDS011;54464;50.558;9.704;2024-03-23T14:35:53;3.77;;;2.07;;
27161;SDS011;54464;50.558;9.704;2024-03-23T14:38:22;6.20;;;1.67;;
27161;SDS011;54464;50.558;9.704;2024-03-23T14:40:48;3.60;;;1.47;;
27161;SDS011;54464;50.558;9.704;2024-03-23T14:43:14;2.83;;;1.47;;
27161;SDS011;54464;50.558;9.704;2024-03-23T14:48:41;5.00;;;1.63;;
27161;SDS011;54464;50.558;9.704;2024-03-23T14:51:08;1.57;;;0.87;;
27161;SDS011;54464;50.558;9.704;2024-03-23T14:53:37;4.50;;;1.80;;
27161;SDS011;54464;50.558;9.704;2024-03-23T14:56:05;2.63;;;1.87;;
27161;SDS011;54464;50.558;9.704;2024-03-23T14:58:31;4.13;;;1.70;;
27161;SDS011;54464;50.558;9.704;2024-03-23T15:01:00;1.77;;;1.67;;
27161;SDS011;54464;50.558;9.704;2024-03-23T15:03:26;2.70;;;1.37;;
27161;SDS011;54464;50.558;9.704;2024-03-23T15:05:53;3.10;;;1.60;;
27161;SDS011;54464;50.558;9.704;2024-03-23T15:08:19;1.93;;;1.50;;
27161;SDS011;54464;50.558;9.704;2024-03-23T15:10:44;2.80;;;1.10;;
27161;SDS011;54464;50.558;9.704;2024-03-23T15:13:10;2.63;;;1.00;;
27161;SDS011;54464;50.558;9.704;2024-03-23T15:15:39;1.73;;;1.40;;
27161;SDS011;54464;50.558;9.704;2024-03-23T15:18:12;1.40;;;1.20;;
27161;SDS011;54464;50.558;9.704;2024-03-23T15:20:40;1.87;;;1.17;;
27161;SDS011;54464;50.558;9.704;2024-03-23T15:23:06;3.47;;;1.00;;
27161;SDS011;54464;50.558;9.704;2024-03-23T15:25:32;4.87;;;1.30;;
27161;SDS011;54464;50.558;9.704;2024-03-23T15:27:58;3.13;;;1.60;;
27161;SDS011;54464;50.558;9.704;2024-03-23T15:30:25;1.43;;;1.33;;
27161;SDS011;54464;50.558;9.704;2024-03-23T15:32:51;3.67;;;2.30;;
27161;SDS011;54464;50.558;9.704;2024-03-23T15:35:17;3.67;;;1.90;;
27161;SDS011;54464;50.558;9.704;2024-03-23T15:37:44;3.30;;;1.53;;
27161;SDS011;54464;50.558;9.704;2024-03-23T15:40:09;1.70;;;1.30;;
27161;SDS011;54464;50.558;9.704;2024-03-23T15:42:36;2.37;;;1.63;;
27161;SDS011;54464;50.558;9.704;2024-03-23T15:45:02;2.40;;;1.53;;